createdAt,value
2022-08-27T00:00:08.194Z,1015.97
2022-08-27T00:05:07.948Z,1015.97
2022-08-27T00:10:07.672Z,1015.85
2022-08-27T00:15:08.370Z,1015.82
2022-08-27T00:20:07.951Z,1015.86
2022-08-27T00:25:07.651Z,1015.9
2022-08-27T00:30:08.346Z,1015.79
2022-08-27T00:35:08.105Z,1015.84
2022-08-27T00:40:07.906Z,1015.78
2022-08-27T00:45:07.633Z,1015.75
2022-08-27T00:50:08.306Z,1015.74
2022-08-27T00:55:08.027Z,1015.83
2022-08-27T01:00:07.731Z,1015.94
2022-08-27T01:05:08.595Z,1015.78
2022-08-27T01:10:08.317Z,1015.83
2022-08-27T01:15:08.018Z,1015.76
2022-08-27T01:20:07.762Z,1015.81
2022-08-27T01:25:08.462Z,1015.75
2022-08-27T01:30:08.173Z,1015.76
2022-08-27T01:35:07.888Z,1015.75
2022-08-27T01:40:08.680Z,1015.8
2022-08-27T01:45:08.423Z,1015.73
2022-08-27T01:50:08.099Z,1015.66
2022-08-27T01:55:07.802Z,1015.66
2022-08-27T02:00:08.574Z,1015.66
2022-08-27T02:05:08.280Z,1015.64
2022-08-27T02:10:08.000Z,1015.74
2022-08-27T02:15:07.733Z,1015.74
2022-08-27T02:20:08.407Z,1015.75
2022-08-27T02:25:10.194Z,1015.71
2022-08-27T02:30:09.888Z,1015.73
2022-08-27T02:35:08.603Z,1015.65
2022-08-27T02:40:08.350Z,1015.6
2022-08-27T02:45:08.112Z,1015.56
2022-08-27T02:50:07.829Z,1015.68
2022-08-27T02:55:08.538Z,1015.61
2022-08-27T03:00:08.386Z,1015.58
2022-08-27T03:05:08.117Z,1015.55
2022-08-27T03:10:07.843Z,1015.54
2022-08-27T03:15:08.596Z,1015.42
2022-08-27T03:20:08.317Z,1015.42
2022-08-27T03:25:08.023Z,1015.47
2022-08-27T03:30:07.723Z,1015.52
2022-08-27T03:35:08.428Z,1015.61
2022-08-27T03:40:08.282Z,1015.52
2022-08-27T03:45:08.014Z,1015.56
2022-08-27T03:50:07.924Z,1015.53
2022-08-27T03:55:08.625Z,1015.72
2022-08-27T04:00:08.339Z,1015.74
2022-08-27T04:05:02.180Z,1015.69
2022-08-27T04:10:02.031Z,1015.73
2022-08-27T04:15:01.855Z,1015.7
2022-08-27T04:20:33.614Z,1015.75
2022-08-27T04:25:02.186Z,1015.75
2022-08-27T04:30:01.942Z,1015.75
2022-08-27T04:35:02.806Z,1015.8
2022-08-27T04:40:02.700Z,1015.85
2022-08-27T04:45:02.605Z,1015.82
2022-08-27T04:50:05.745Z,1015.82
2022-08-27T04:55:02.853Z,1015.85
2022-08-27T05:00:02.701Z,1015.87
2022-08-27T05:05:02.696Z,1015.84
2022-08-27T05:10:02.749Z,1015.86
2022-08-27T05:15:02.669Z,1015.8
2022-08-27T05:20:02.601Z,1015.82
2022-08-27T05:25:02.496Z,1015.86
2022-08-27T05:30:02.320Z,1015.89
2022-08-27T05:35:02.138Z,1015.86
2022-08-27T05:40:02.122Z,1015.89
2022-08-27T05:45:02.099Z,1015.85
2022-08-27T05:50:01.943Z,1015.94
2022-08-27T05:55:01.759Z,1015.88
2022-08-27T06:00:02.625Z,1015.91
2022-08-27T06:05:02.771Z,1015.89
2022-08-27T06:10:02.560Z,1015.86
2022-08-27T06:15:02.377Z,1015.93
2022-08-27T06:20:02.266Z,1016.0
2022-08-27T06:25:02.103Z,1016.0
2022-08-27T06:30:02.001Z,1016.02
2022-08-27T06:35:01.982Z,1016.01
2022-08-27T06:40:01.985Z,1016.0
2022-08-27T06:45:01.889Z,1016.07
2022-08-27T06:50:02.629Z,1016.03
2022-08-27T06:55:02.475Z,1016.02
2022-08-27T07:00:02.475Z,1016.09
2022-08-27T07:05:02.353Z,1016.07
2022-08-27T07:10:02.229Z,1016.15
2022-08-27T07:15:03.101Z,1016.19
2022-08-27T07:20:02.940Z,1016.12
2022-08-27T07:25:02.798Z,1016.08
2022-08-27T07:30:02.724Z,1016.08
2022-08-27T07:35:02.629Z,1016.12
2022-08-27T07:40:02.792Z,1016.14
2022-08-27T07:45:02.863Z,1016.21
2022-08-27T07:50:02.868Z,1016.19
2022-08-27T07:55:02.767Z,1016.15
2022-08-27T08:00:02.749Z,1016.22
2022-08-27T08:05:02.670Z,1016.22
2022-08-27T08:10:02.620Z,1016.26
2022-08-27T08:15:02.417Z,1016.2
2022-08-27T08:20:19.882Z,1016.3
2022-08-27T08:25:02.805Z,1016.27
2022-08-27T08:30:02.625Z,1016.37
2022-08-27T08:35:02.480Z,1016.32
2022-08-27T08:40:02.487Z,1016.34
2022-08-27T08:45:02.365Z,1016.35
2022-08-27T08:50:02.244Z,1016.34
2022-08-27T08:55:02.131Z,1016.25
2022-08-27T09:00:02.094Z,1016.32
2022-08-27T09:05:01.955Z,1016.29
2022-08-27T09:10:01.920Z,1016.34
2022-08-27T09:15:02.756Z,1016.39
2022-08-27T09:20:01.951Z,1016.39
2022-08-27T09:25:05.789Z,1016.29
2022-08-27T09:30:07.791Z,1016.35
2022-08-27T09:35:03.289Z,1016.41
2022-08-27T09:40:13.679Z,1016.34
2022-08-27T09:45:01.735Z,1016.47
2022-08-27T09:50:07.074Z,1016.32
2022-08-27T09:55:02.243Z,1016.34
2022-08-27T10:00:01.811Z,1016.32
2022-08-27T10:05:02.643Z,1016.31
2022-08-27T10:10:02.797Z,1016.23
2022-08-27T10:15:02.844Z,1016.27
2022-08-27T10:20:02.884Z,1016.27
2022-08-27T10:25:02.987Z,1016.27
2022-08-27T10:30:02.049Z,1016.39
2022-08-27T10:35:02.101Z,1016.29
2022-08-27T10:40:03.109Z,1016.25
2022-08-27T10:45:02.188Z,1016.32
2022-08-27T10:50:02.077Z,1016.33
2022-08-27T10:55:02.035Z,1016.22
2022-08-27T11:00:12.802Z,1016.22
2022-08-27T11:05:02.729Z,1016.16
2022-08-27T11:10:02.671Z,1016.17
2022-08-27T11:15:02.511Z,1016.08
2022-08-27T11:20:02.365Z,1016.16
2022-08-27T11:25:02.320Z,1016.13
2022-08-27T11:30:02.256Z,1016.05
2022-08-27T11:35:02.094Z,1016.13
2022-08-27T11:40:07.439Z,1016.02
2022-08-27T11:45:02.301Z,1016.07
2022-08-27T11:50:02.097Z,1016.19
2022-08-27T11:55:01.901Z,1016.04
2022-08-27T12:00:02.013Z,1016.01
2022-08-27T12:05:02.203Z,1015.98
2022-08-27T12:10:02.181Z,1015.92
2022-08-27T12:15:02.052Z,1016.0
2022-08-27T12:20:01.923Z,1016.07
2022-08-27T12:25:02.782Z,1015.96
2022-08-27T12:30:02.711Z,1015.96
2022-08-27T12:35:02.534Z,1015.92
2022-08-27T12:40:02.676Z,1015.84
2022-08-27T12:45:02.618Z,1015.82
2022-08-27T12:50:02.650Z,1015.92
2022-08-27T12:55:02.698Z,1015.84
2022-08-27T13:00:02.762Z,1015.77
2022-08-27T13:05:02.753Z,1015.88
2022-08-27T13:10:02.897Z,1015.78
2022-08-27T13:15:03.048Z,1015.77
2022-08-27T13:20:01.977Z,1015.82
2022-08-27T13:25:01.933Z,1015.78
2022-08-27T13:30:02.851Z,1015.89
2022-08-27T13:35:02.699Z,1015.8
2022-08-27T13:40:02.665Z,1015.74
2022-08-27T13:45:02.578Z,1015.8
2022-08-27T13:50:02.487Z,1015.7
2022-08-27T13:55:12.427Z,1015.76
2022-08-27T14:00:02.338Z,1015.72
2022-08-27T14:05:02.174Z,1015.7
2022-08-27T14:10:02.106Z,1015.62
2022-08-27T14:15:02.010Z,1015.59
2022-08-27T14:20:01.965Z,1015.67
2022-08-27T14:25:01.924Z,1015.69
2022-08-27T14:30:02.836Z,1015.61
2022-08-27T14:35:02.761Z,1015.72
2022-08-27T14:40:02.958Z,1015.74
2022-08-27T14:45:02.011Z,1015.72
2022-08-27T14:50:02.089Z,1015.85
2022-08-27T14:55:02.277Z,1015.78
2022-08-27T15:00:02.219Z,1015.77
2022-08-27T15:05:07.905Z,1015.8
2022-08-27T15:10:02.018Z,1015.89
2022-08-27T15:15:02.129Z,1015.91
2022-08-27T15:20:02.001Z,1015.94
2022-08-27T15:25:02.046Z,1015.94
2022-08-27T15:30:02.142Z,1015.92
2022-08-27T15:35:02.149Z,1015.94
2022-08-27T15:40:02.202Z,1016.03
2022-08-27T15:45:02.134Z,1015.98
2022-08-27T15:50:02.500Z,1016.01
2022-08-27T15:55:02.389Z,1016.0
2022-08-27T16:00:02.777Z,1015.98
2022-08-27T16:05:02.731Z,1015.94
2022-08-27T16:10:02.687Z,1015.96
2022-08-27T16:15:02.693Z,1016.0
2022-08-27T16:20:02.776Z,1015.94
2022-08-27T16:25:02.628Z,1015.99
2022-08-27T16:30:02.494Z,1015.95
2022-08-27T16:35:02.472Z,1015.92
2022-08-27T16:40:02.435Z,1015.96
2022-08-27T16:45:02.624Z,1015.96
2022-08-27T16:50:02.545Z,1015.91
2022-08-27T16:55:02.499Z,1015.89
2022-08-27T17:00:02.494Z,1015.94
2022-08-27T17:05:23.836Z,1015.88
2022-08-27T17:10:05.860Z,1015.92
2022-08-27T17:15:01.953Z,1016.03
2022-08-27T17:20:01.973Z,1015.99
2022-08-27T17:25:01.827Z,1016.04
2022-08-27T17:30:02.774Z,1016.07
2022-08-27T17:35:06.090Z,1015.97
2022-08-27T17:40:03.773Z,1016.03
2022-08-27T17:45:02.676Z,1015.99
2022-08-27T17:50:03.334Z,1016.0
2022-08-27T17:55:02.472Z,1016.03
2022-08-27T18:00:04.943Z,1016.01
2022-08-27T18:05:02.292Z,1016.05
2022-08-27T18:10:02.205Z,1016.08
2022-08-27T18:15:02.134Z,1016.07
2022-08-27T18:20:02.076Z,1016.21
2022-08-27T18:25:02.158Z,1016.28
2022-08-27T18:30:02.163Z,1016.34
2022-08-27T18:35:02.118Z,1016.36
2022-08-27T18:40:02.172Z,1016.4
2022-08-27T18:45:05.719Z,1016.43
2022-08-27T18:50:02.068Z,1016.46
2022-08-27T18:55:01.976Z,1016.59
2022-08-27T19:00:01.936Z,1016.62
2022-08-27T19:05:02.903Z,1016.59
2022-08-27T19:10:02.895Z,1016.64
2022-08-27T19:15:02.779Z,1016.69
2022-08-27T19:20:02.694Z,1016.73
2022-08-27T19:25:02.471Z,1016.84
2022-08-27T19:30:02.278Z,1016.84
2022-08-27T19:35:02.220Z,1016.89
2022-08-27T19:40:02.095Z,1016.93
2022-08-27T19:45:01.982Z,1017.0
2022-08-27T19:50:01.837Z,1017.05
2022-08-27T19:55:13.664Z,1017.05
2022-08-27T20:00:02.183Z,1017.2
2022-08-27T20:05:17.435Z,1017.2
2022-08-27T20:10:08.149Z,1017.23
2022-08-27T20:15:02.471Z,1017.16
2022-08-27T20:20:01.927Z,1017.2
2022-08-27T20:25:02.917Z,1017.2
2022-08-27T20:30:02.823Z,1017.13
2022-08-27T20:35:02.675Z,1017.24
2022-08-27T20:40:02.595Z,1017.31
2022-08-27T20:45:02.461Z,1017.26
2022-08-27T20:50:03.318Z,1017.35
2022-08-27T20:55:02.529Z,1017.39
2022-08-27T21:00:02.462Z,1017.48
2022-08-27T21:05:02.528Z,1017.53
2022-08-27T21:10:02.615Z,1017.64
2022-08-27T21:15:02.686Z,1017.71
2022-08-27T21:20:02.694Z,1017.65
2022-08-27T21:25:02.491Z,1017.72
2022-08-27T21:30:02.417Z,1017.78
2022-08-27T21:35:15.043Z,1017.77
2022-08-27T21:40:07.901Z,1017.8
2022-08-27T21:45:07.679Z,1017.87
2022-08-27T21:50:08.363Z,1017.88
2022-08-27T21:55:08.089Z,1017.88
2022-08-27T22:00:07.837Z,1017.85
2022-08-27T22:05:08.547Z,1017.9
2022-08-27T22:10:08.264Z,1018.02
2022-08-27T22:15:07.961Z,1017.96
2022-08-27T22:20:07.680Z,1017.9
2022-08-27T22:25:08.421Z,1017.95
2022-08-27T22:30:11.150Z,1017.93
2022-08-27T22:35:08.149Z,1017.91
2022-08-27T22:40:07.900Z,1017.91
2022-08-27T22:45:08.356Z,1017.93
2022-08-27T22:50:08.309Z,1017.96
2022-08-27T22:55:08.023Z,1017.93
2022-08-27T23:00:59.952Z,1017.97
2022-08-27T23:05:08.651Z,1018.09
2022-08-27T23:10:08.466Z,1018.06
2022-08-27T23:15:08.140Z,1018.01
2022-08-27T23:20:07.872Z,1018.15
2022-08-27T23:25:08.591Z,1018.1
2022-08-27T23:30:08.296Z,1018.16
2022-08-27T23:35:08.025Z,1018.17
2022-08-27T23:40:07.794Z,1018.08
2022-08-27T23:45:09.637Z,1018.08
2022-08-27T23:50:08.380Z,1018.01
2022-08-27T23:55:08.110Z,1018.04
